createdAt,value
2018-07-05T00:02:26.632Z,99740.00
2018-07-05T00:05:11.908Z,99742.00
2018-07-05T00:07:57.171Z,99739.00
2018-07-05T00:10:42.488Z,99737.00
2018-07-05T00:13:27.747Z,99739.00
2018-07-05T00:16:13.027Z,99734.00
2018-07-05T00:18:58.392Z,99725.00
2018-07-05T00:21:43.791Z,99727.00
2018-07-05T00:24:29.151Z,99724.00
2018-07-05T00:27:14.532Z,99730.00
2018-07-05T00:29:59.772Z,99731.00
2018-07-05T00:32:44.844Z,99742.00
2018-07-05T00:35:29.984Z,99735.00
2018-07-05T00:38:15.183Z,99741.00
2018-07-05T00:41:00.341Z,99734.00
2018-07-05T00:43:45.519Z,99723.00
2018-07-05T00:46:30.709Z,99731.00
2018-07-05T00:49:15.928Z,99732.00
2018-07-05T00:52:01.276Z,99725.00
2018-07-05T00:54:46.636Z,99721.00
2018-07-05T00:57:31.996Z,99731.00
2018-07-05T01:00:17.204Z,99728.00
2018-07-05T01:02:56.496Z,99725.00
2018-07-05T01:05:41.996Z,99724.00
2018-07-05T01:08:27.265Z,99731.00
2018-07-05T01:11:12.461Z,99723.00
2018-07-05T01:13:57.615Z,99727.00
2018-07-05T01:16:42.939Z,99721.00
2018-07-05T01:19:28.165Z,99724.00
2018-07-05T01:22:13.383Z,99709.00
2018-07-05T01:24:58.680Z,99720.00
2018-07-05T01:30:55.826Z,99733.00
2018-07-05T01:33:40.994Z,99722.00
2018-07-05T01:36:26.160Z,99719.00
2018-07-05T01:39:11.278Z,99724.00
2018-07-05T01:41:56.283Z,99720.00
2018-07-05T01:44:41.452Z,99731.00
2018-07-05T01:47:26.550Z,99720.00
2018-07-05T01:50:13.083Z,99716.00
2018-07-05T01:52:58.416Z,99723.00
2018-07-05T01:55:43.616Z,99722.00
2018-07-05T01:58:28.764Z,99724.00
2018-07-05T02:01:14.078Z,99725.00
2018-07-05T02:03:59.220Z,99729.00
2018-07-05T02:06:44.394Z,99718.00
2018-07-05T02:09:29.499Z,99718.00
2018-07-05T02:12:14.582Z,99717.00
2018-07-05T02:14:59.569Z,99722.00
2018-07-05T02:17:44.812Z,99729.00
2018-07-05T02:20:29.948Z,99718.00
2018-07-05T02:23:15.062Z,99720.00
2018-07-05T02:26:00.118Z,99718.00
2018-07-05T02:28:45.278Z,99724.00
2018-07-05T02:31:30.411Z,99727.00
2018-07-05T02:34:15.635Z,99707.00
2018-07-05T02:37:00.877Z,99724.00
2018-07-05T02:39:48.008Z,99713.00
2018-07-05T02:42:33.160Z,99714.00
2018-07-05T02:45:18.479Z,99713.00
2018-07-05T02:48:03.726Z,99715.00
2018-07-05T02:50:43.022Z,99709.00
2018-07-05T02:53:28.071Z,99706.00
2018-07-05T02:56:13.342Z,99712.00
2018-07-05T02:58:58.489Z,99714.00
2018-07-05T03:01:43.545Z,99714.00
2018-07-05T03:04:30.488Z,99708.00
2018-07-05T03:07:15.748Z,99705.00
2018-07-05T03:10:00.790Z,99704.00
2018-07-05T03:12:46.556Z,99694.00
2018-07-05T03:15:31.770Z,99703.00
2018-07-05T03:18:16.947Z,99711.00
2018-07-05T03:21:02.077Z,99710.00
2018-07-05T03:23:47.117Z,99712.00
2018-07-05T03:26:32.231Z,99707.00
2018-07-05T03:29:17.656Z,99710.00
2018-07-05T03:32:02.911Z,99709.00
2018-07-05T03:34:48.134Z,99703.00
2018-07-05T03:37:33.084Z,99702.00
2018-07-05T03:40:18.179Z,99706.00
2018-07-05T03:43:03.148Z,99700.00
2018-07-05T03:45:48.782Z,99706.00
2018-07-05T03:48:33.976Z,99704.00
2018-07-05T03:51:19.511Z,99699.00
2018-07-05T03:54:05.559Z,99696.00
2018-07-05T03:56:50.697Z,99703.00
2018-07-05T03:59:37.166Z,99700.00
2018-07-05T04:02:22.713Z,99702.00
2018-07-05T04:05:08.514Z,99698.00
2018-07-05T04:07:53.819Z,99700.00
2018-07-05T04:10:38.862Z,99692.00
2018-07-05T04:13:23.793Z,99699.00
2018-07-05T04:16:08.753Z,99700.00
2018-07-05T04:18:53.864Z,99704.00
2018-07-05T04:21:38.786Z,99709.00
2018-07-05T04:24:23.835Z,99700.00
2018-07-05T04:27:08.812Z,99712.00
2018-07-05T04:29:53.794Z,99706.00
2018-07-05T04:32:32.977Z,99705.00
2018-07-05T04:35:18.207Z,99710.00
2018-07-05T04:38:03.296Z,99707.00
2018-07-05T04:40:48.367Z,99710.00
2018-07-05T04:43:33.490Z,99714.00
2018-07-05T04:46:18.582Z,99715.00
2018-07-05T04:49:03.672Z,99707.00
2018-07-05T04:51:48.640Z,99714.00
2018-07-05T04:54:33.770Z,99721.00
2018-07-05T04:57:18.852Z,99693.00
2018-07-05T05:00:04.129Z,99688.00
2018-07-05T05:02:49.398Z,99695.00
2018-07-05T05:05:34.661Z,99701.00
2018-07-05T05:08:19.813Z,99704.00
2018-07-05T05:11:04.976Z,99708.00
2018-07-05T05:13:50.252Z,99700.00
2018-07-05T05:16:35.516Z,99704.00
2018-07-05T05:19:20.778Z,99700.00
2018-07-05T05:22:05.867Z,99706.00
2018-07-05T05:24:50.914Z,99718.00
2018-07-05T05:30:35.761Z,99713.00
2018-07-05T05:33:20.755Z,99721.00
2018-07-05T05:36:05.815Z,99722.00
2018-07-05T05:38:50.986Z,99719.00
2018-07-05T05:41:36.082Z,99733.00
2018-07-05T05:44:21.144Z,99738.00
2018-07-05T05:47:06.179Z,99740.00
2018-07-05T05:49:51.178Z,99749.00
2018-07-05T05:52:36.092Z,99744.00
2018-07-05T05:55:21.116Z,99748.00
2018-07-05T05:58:06.213Z,99751.00
2018-07-05T06:00:51.306Z,99750.00
2018-07-05T06:03:36.318Z,99743.00
2018-07-05T06:06:21.393Z,99743.00
2018-07-05T06:09:06.454Z,99736.00
2018-07-05T06:11:51.534Z,99737.00
2018-07-05T06:14:36.556Z,99726.00
2018-07-05T06:17:21.541Z,99742.00
2018-07-05T06:20:06.596Z,99748.00
2018-07-05T06:22:51.598Z,99741.00
2018-07-05T06:25:36.717Z,99743.00
2018-07-05T06:28:21.742Z,99735.00
2018-07-05T06:31:06.697Z,99730.00
2018-07-05T06:33:51.844Z,99728.00
2018-07-05T06:36:36.814Z,99725.00
2018-07-05T06:39:21.968Z,99729.00
2018-07-05T06:42:06.893Z,99736.00
2018-07-05T06:44:51.948Z,99721.00
2018-07-05T06:47:36.966Z,99727.00
2018-07-05T06:50:22.101Z,99726.00
2018-07-05T06:53:07.121Z,99727.00
2018-07-05T06:55:52.406Z,99729.00
2018-07-05T06:58:37.528Z,99732.00
2018-07-05T07:01:22.604Z,99731.00
2018-07-05T07:04:07.676Z,99721.00
2018-07-05T07:06:52.857Z,99690.00
2018-07-05T07:09:38.057Z,99721.00
2018-07-05T07:12:23.117Z,99724.00
2018-07-05T07:15:08.138Z,99720.00
2018-07-05T07:17:53.246Z,99724.00
2018-07-05T07:20:38.344Z,99724.00
2018-07-05T07:23:23.550Z,99715.00
2018-07-05T07:26:08.566Z,99708.00
2018-07-05T07:28:53.670Z,99685.00
2018-07-05T07:31:38.835Z,99700.00
2018-07-05T07:34:23.906Z,99707.00
2018-07-05T07:37:08.983Z,99673.00
2018-07-05T07:39:54.071Z,99703.00
2018-07-05T07:42:20.371Z,99715.00
2018-07-05T07:44:46.668Z,99730.00
2018-07-05T07:47:12.957Z,99719.00
2018-07-05T07:49:39.260Z,99698.00
2018-07-05T07:52:05.553Z,99698.00
2018-07-05T07:54:31.840Z,99704.00
2018-07-05T07:56:58.124Z,99704.00
2018-07-05T07:59:24.412Z,99701.00
2018-07-05T08:01:50.715Z,99699.00
2018-07-05T08:04:17.025Z,99707.00
2018-07-05T08:06:43.328Z,99709.00
2018-07-05T08:09:09.613Z,99708.00
2018-07-05T08:11:35.904Z,99709.00
2018-07-05T08:14:05.614Z,99710.00
2018-07-05T08:16:31.912Z,99705.00
2018-07-05T08:18:58.195Z,99701.00
2018-07-05T08:21:24.503Z,99699.00
2018-07-05T08:23:50.810Z,99703.00
2018-07-05T08:26:17.114Z,99673.00
2018-07-05T08:28:43.402Z,99693.00
2018-07-05T08:31:09.708Z,99685.00
2018-07-05T08:33:36.006Z,99686.00
2018-07-05T08:36:02.308Z,99689.00
2018-07-05T08:38:28.604Z,99688.00
2018-07-05T08:40:54.905Z,99692.00
2018-07-05T08:43:21.202Z,99695.00
2018-07-05T08:45:47.502Z,99689.00
2018-07-05T08:48:13.789Z,99684.00
2018-07-05T08:50:40.090Z,99687.00
2018-07-05T08:53:06.386Z,99688.00
2018-07-05T08:55:32.695Z,99685.00
2018-07-05T08:57:58.998Z,99677.00
2018-07-05T09:00:25.286Z,99661.00
2018-07-05T09:02:51.587Z,99663.00
2018-07-05T09:05:17.913Z,99672.00
2018-07-05T09:07:44.180Z,99675.00
2018-07-05T09:10:10.481Z,99680.00
2018-07-05T09:12:36.778Z,99676.00
2018-07-05T09:15:03.073Z,99674.00
2018-07-05T09:17:29.456Z,99667.00
2018-07-05T09:19:55.676Z,99665.00
2018-07-05T09:22:21.983Z,99663.00
2018-07-05T09:24:48.269Z,99665.00
2018-07-05T09:27:14.570Z,99656.00
2018-07-05T09:29:40.866Z,99661.00
2018-07-05T09:32:07.172Z,99651.00
2018-07-05T09:34:33.486Z,99639.00
2018-07-05T09:36:59.783Z,99639.00
2018-07-05T09:39:26.084Z,99640.00
2018-07-05T09:41:52.392Z,99636.00
2018-07-05T09:44:18.690Z,99639.00
2018-07-05T09:46:44.998Z,99638.00
2018-07-05T09:49:11.295Z,99633.00
2018-07-05T09:51:37.598Z,99630.00
2018-07-05T09:54:03.899Z,99627.00
2018-07-05T09:56:30.218Z,99629.00
2018-07-05T09:58:56.548Z,99616.00
2018-07-05T10:01:22.853Z,99618.00
2018-07-05T10:03:49.197Z,99617.00
2018-07-05T10:06:33.721Z,99619.00
2018-07-05T10:09:00.028Z,99609.00
2018-07-05T10:11:26.334Z,99611.00
2018-07-05T10:13:52.709Z,99604.00
2018-07-05T10:16:18.933Z,99597.00
2018-07-05T10:18:45.216Z,99595.00
2018-07-05T10:21:11.508Z,99588.00
2018-07-05T10:23:37.804Z,99605.00
2018-07-05T10:26:04.088Z,99585.00
2018-07-05T10:28:30.390Z,99598.00
2018-07-05T10:31:15.507Z,99601.00
2018-07-05T10:33:45.520Z,99598.00
2018-07-05T10:36:11.824Z,99602.00
2018-07-05T10:38:38.104Z,99602.00
2018-07-05T10:41:23.267Z,99582.00
2018-07-05T10:44:08.422Z,99580.00
2018-07-05T10:46:53.612Z,99593.00
2018-07-05T10:49:38.697Z,99591.00
2018-07-05T10:52:23.727Z,99591.00
2018-07-05T10:55:08.647Z,99588.00
2018-07-05T10:57:53.674Z,99582.00
2018-07-05T11:00:32.924Z,99569.00
2018-07-05T11:03:18.000Z,99557.00
2018-07-05T11:06:03.044Z,99556.00
2018-07-05T11:08:48.043Z,99567.00
2018-07-05T11:11:33.117Z,99556.00
2018-07-05T11:14:18.229Z,99548.00
2018-07-05T11:17:03.295Z,99546.00
2018-07-05T11:19:48.492Z,99553.00
2018-07-05T11:22:33.568Z,99548.00
2018-07-05T11:25:18.594Z,99547.00
2018-07-05T11:28:03.588Z,99539.00
2018-07-05T11:30:48.644Z,99544.00
2018-07-05T11:33:33.626Z,99539.00
2018-07-05T11:36:18.733Z,99534.00
2018-07-05T11:39:05.024Z,99539.00
2018-07-05T11:41:50.149Z,99546.00
2018-07-05T11:44:35.168Z,99529.00
2018-07-05T11:47:20.204Z,99524.00
2018-07-05T11:50:05.199Z,99541.00
2018-07-05T11:52:44.468Z,99536.00
2018-07-05T11:55:29.424Z,99519.00
2018-07-05T11:58:14.535Z,99523.00
2018-07-05T12:00:59.596Z,99524.00
2018-07-05T12:03:44.716Z,99520.00
2018-07-05T12:06:29.971Z,99518.00
2018-07-05T12:09:15.103Z,99513.00
2018-07-05T12:12:00.188Z,99509.00
2018-07-05T12:14:45.230Z,99500.00
2018-07-05T12:17:30.276Z,99508.00
2018-07-05T12:20:15.225Z,99500.00
2018-07-05T12:23:00.379Z,99501.00
2018-07-05T12:25:45.451Z,99499.00
2018-07-05T12:28:30.453Z,99506.00
2018-07-05T12:31:15.520Z,99503.00
2018-07-05T12:33:54.901Z,99500.00
2018-07-05T12:36:39.927Z,99487.00
2018-07-05T12:39:25.064Z,99485.00
2018-07-05T12:42:10.104Z,99475.00
2018-07-05T12:44:55.156Z,99479.00
2018-07-05T12:47:40.246Z,99477.00
2018-07-05T12:50:25.266Z,99467.00
2018-07-05T12:53:10.260Z,99473.00
2018-07-05T12:55:55.246Z,99470.00
2018-07-05T12:58:40.403Z,99471.00
2018-07-05T13:01:29.460Z,99469.00
2018-07-05T13:07:20.950Z,99456.00
2018-07-05T13:13:14.760Z,99453.00
2018-07-05T13:15:59.909Z,99459.00
2018-07-05T13:18:45.180Z,99451.00
2018-07-05T13:21:30.519Z,99442.00
2018-07-05T13:27:21.488Z,99457.00
2018-07-05T13:33:06.754Z,99453.00
2018-07-05T13:35:51.957Z,99459.00
2018-07-05T13:38:42.330Z,99455.00
2018-07-05T13:41:27.418Z,99447.00
2018-07-05T13:44:12.403Z,99442.00
2018-07-05T13:46:57.457Z,99439.00
2018-07-05T13:49:42.513Z,99443.00
2018-07-05T13:52:28.453Z,99444.00
2018-07-05T13:55:15.500Z,99440.00
2018-07-05T13:58:00.580Z,99445.00
2018-07-05T14:00:45.742Z,99438.00
2018-07-05T14:03:30.889Z,99437.00
2018-07-05T14:06:17.944Z,99441.00
2018-07-05T14:08:57.211Z,99431.00
2018-07-05T14:11:42.442Z,99436.00
2018-07-05T14:14:27.840Z,99438.00
2018-07-05T14:17:13.048Z,99438.00
2018-07-05T14:19:57.994Z,99435.00
2018-07-05T14:22:43.050Z,99436.00
2018-07-05T14:25:28.009Z,99438.00
2018-07-05T14:28:13.076Z,99429.00
2018-07-05T14:30:58.215Z,99440.00
2018-07-05T14:33:43.296Z,99429.00
2018-07-05T14:36:28.626Z,99425.00
2018-07-05T14:39:13.726Z,99427.00
2018-07-05T14:41:58.932Z,99429.00
2018-07-05T14:44:44.002Z,99429.00
2018-07-05T14:47:29.198Z,99424.00
2018-07-05T14:50:14.253Z,99427.00
2018-07-05T14:52:59.302Z,99433.00
2018-07-05T14:55:44.352Z,99426.00
2018-07-05T14:58:29.413Z,99425.00
2018-07-05T15:01:14.446Z,99429.00
2018-07-05T15:03:59.454Z,99433.00
2018-07-05T15:06:44.422Z,99434.00
2018-07-05T15:09:29.405Z,99429.00
2018-07-05T15:12:16.130Z,99429.00
2018-07-05T15:15:01.193Z,99433.00
2018-07-05T15:17:46.306Z,99424.00
2018-07-05T15:20:31.471Z,99422.00
2018-07-05T15:23:16.505Z,99425.00
2018-07-05T15:26:01.610Z,99423.00
2018-07-05T15:28:46.608Z,99425.00
2018-07-05T15:31:31.662Z,99427.00
2018-07-05T15:34:16.702Z,99426.00
2018-07-05T15:37:01.764Z,99427.00
2018-07-05T15:39:47.293Z,99423.00
2018-07-05T15:42:32.285Z,99431.00
2018-07-05T15:45:17.478Z,99434.00
2018-07-05T15:48:02.559Z,99430.00
2018-07-05T15:50:47.692Z,99437.00
2018-07-05T15:53:32.838Z,99439.00
2018-07-05T15:56:17.971Z,99426.00
2018-07-05T15:59:03.691Z,99428.00
2018-07-05T16:01:48.956Z,99449.00
2018-07-05T16:04:34.224Z,99452.00
2018-07-05T16:07:19.302Z,99440.00
2018-07-05T16:10:04.509Z,99444.00
2018-07-05T16:12:49.706Z,99443.00
2018-07-05T16:15:35.027Z,99440.00
2018-07-05T16:18:14.359Z,99447.00
2018-07-05T16:20:59.580Z,99449.00
2018-07-05T16:23:44.653Z,99458.00
2018-07-05T16:26:29.687Z,99460.00
2018-07-05T16:29:14.762Z,99459.00
2018-07-05T16:31:59.841Z,99459.00
2018-07-05T16:34:44.934Z,99459.00
2018-07-05T16:37:30.163Z,99456.00
2018-07-05T16:40:15.336Z,99453.00
2018-07-05T16:43:00.395Z,99450.00
2018-07-05T16:45:46.269Z,99445.00
2018-07-05T16:48:31.446Z,99444.00
2018-07-05T16:51:16.548Z,99450.00
2018-07-05T16:54:01.629Z,99446.00
2018-07-05T16:56:46.695Z,99446.00
2018-07-05T16:59:31.827Z,99450.00
2018-07-05T17:02:17.485Z,99453.00
2018-07-05T17:05:02.730Z,99463.00
2018-07-05T17:07:47.900Z,99461.00
2018-07-05T17:10:32.947Z,99467.00
2018-07-05T17:13:17.938Z,99463.00
2018-07-05T17:16:03.217Z,99461.00
2018-07-05T17:18:48.249Z,99471.00
2018-07-05T17:21:33.212Z,99469.00
2018-07-05T17:24:18.252Z,99464.00
2018-07-05T17:27:03.438Z,99480.00
2018-07-05T17:29:48.561Z,99479.00
2018-07-05T17:32:33.625Z,99474.00
2018-07-05T17:35:12.720Z,99480.00
2018-07-05T17:37:57.826Z,99484.00
2018-07-05T17:40:43.110Z,99487.00
2018-07-05T17:43:28.323Z,99476.00
2018-07-05T17:46:13.400Z,99489.00
2018-07-05T17:48:58.450Z,99495.00
2018-07-05T17:51:43.597Z,99503.00
2018-07-05T17:54:28.891Z,99516.00
2018-07-05T17:57:14.095Z,99513.00
2018-07-05T17:59:59.108Z,99515.00
2018-07-05T18:02:44.681Z,99517.00
2018-07-05T18:05:36.066Z,99527.00
2018-07-05T18:08:21.624Z,99526.00
2018-07-05T18:11:06.679Z,99536.00
2018-07-05T18:13:51.835Z,99542.00
2018-07-05T18:16:36.968Z,99548.00
2018-07-05T18:19:22.106Z,99542.00
2018-07-05T18:22:07.179Z,99546.00
2018-07-05T18:24:52.534Z,99561.00
2018-07-05T18:27:37.658Z,99560.00
2018-07-05T18:30:22.769Z,99562.00
2018-07-05T18:33:07.950Z,99563.00
2018-07-05T18:35:53.058Z,99561.00
2018-07-05T18:38:38.029Z,99571.00
2018-07-05T18:41:23.091Z,99568.00
2018-07-05T18:44:08.150Z,99577.00
2018-07-05T18:46:53.220Z,99582.00
2018-07-05T18:49:38.313Z,99584.00
2018-07-05T18:52:23.314Z,99582.00
2018-07-05T18:55:08.608Z,99582.00
2018-07-05T18:57:53.830Z,99589.00
2018-07-05T19:00:38.898Z,99589.00
2018-07-05T19:03:24.037Z,99592.00
2018-07-05T19:06:09.290Z,99611.00
2018-07-05T19:08:54.418Z,99609.00
2018-07-05T19:11:39.563Z,99621.00
2018-07-05T19:14:24.609Z,99623.00
2018-07-05T19:17:09.641Z,99621.00
2018-07-05T19:19:54.760Z,99629.00
2018-07-05T19:22:41.538Z,99627.00
2018-07-05T19:25:26.668Z,99634.00
2018-07-05T19:28:11.730Z,99639.00
2018-07-05T19:30:51.095Z,99637.00
2018-07-05T19:33:36.257Z,99632.00
2018-07-05T19:36:21.298Z,99640.00
2018-07-05T19:39:06.378Z,99648.00
2018-07-05T19:41:51.514Z,99649.00
2018-07-05T19:44:36.548Z,99648.00
2018-07-05T19:47:21.708Z,99654.00
2018-07-05T19:50:06.969Z,99646.00
2018-07-05T19:52:52.176Z,99649.00
2018-07-05T19:55:37.512Z,99654.00
2018-07-05T19:58:22.674Z,99655.00
2018-07-05T20:01:09.974Z,99669.00
2018-07-05T20:07:08.898Z,99670.00
2018-07-05T20:12:59.547Z,99672.00
2018-07-05T20:15:38.969Z,99676.00
2018-07-05T20:18:24.039Z,99676.00
2018-07-05T20:21:09.262Z,99687.00
2018-07-05T20:23:54.366Z,99687.00
2018-07-05T20:26:39.634Z,99703.00
2018-07-05T20:29:24.806Z,99691.00
2018-07-05T20:32:09.968Z,99701.00
2018-07-05T20:34:55.199Z,99705.00
2018-07-05T20:37:40.295Z,99712.00
2018-07-05T20:40:25.473Z,99714.00
2018-07-05T20:43:11.181Z,99715.00
2018-07-05T20:45:59.093Z,99711.00
2018-07-05T21:00:48.844Z,99731.00
2018-07-05T21:03:33.898Z,99725.00
2018-07-05T21:06:19.897Z,99727.00
2018-07-05T21:12:10.010Z,99733.00
2018-07-05T21:18:07.713Z,99737.00
2018-07-05T21:21:00.625Z,99736.00
2018-07-05T21:26:51.148Z,99729.00
2018-07-05T21:29:38.133Z,99737.00
2018-07-05T21:41:23.935Z,99733.00
2018-07-05T21:44:09.014Z,99745.00
2018-07-05T21:46:54.226Z,99745.00
2018-07-05T21:49:39.434Z,99738.00
2018-07-05T21:52:24.656Z,99739.00
2018-07-05T21:55:09.715Z,99750.00
2018-07-05T21:57:54.957Z,99755.00
2018-07-05T22:00:40.117Z,99758.00
2018-07-05T22:03:25.135Z,99762.00
2018-07-05T22:06:10.166Z,99764.00
2018-07-05T22:08:55.338Z,99770.00
2018-07-05T22:11:40.410Z,99759.00
2018-07-05T22:14:19.621Z,99765.00
2018-07-05T22:17:10.715Z,99761.00
2018-07-05T22:20:01.879Z,99757.00
2018-07-05T22:22:52.970Z,99756.00
2018-07-05T22:25:44.145Z,99751.00
2018-07-05T22:28:35.280Z,99759.00
2018-07-05T22:31:26.515Z,99756.00
2018-07-05T22:34:12.314Z,99760.00
2018-07-05T22:36:57.525Z,99770.00
2018-07-05T22:39:42.530Z,99765.00
2018-07-05T22:42:27.497Z,99760.00
2018-07-05T22:45:12.625Z,99765.00
2018-07-05T22:47:57.552Z,99765.00
2018-07-05T22:50:42.686Z,99773.00
2018-07-05T22:53:27.779Z,99772.00
2018-07-05T22:56:12.803Z,99774.00
2018-07-05T22:58:57.875Z,99776.00
2018-07-05T23:01:42.884Z,99784.00
2018-07-05T23:04:27.853Z,99786.00
2018-07-05T23:07:12.952Z,99779.00
2018-07-05T23:09:58.162Z,99784.00
2018-07-05T23:12:43.243Z,99794.00
2018-07-05T23:15:28.312Z,99792.00
2018-07-05T23:18:13.436Z,99798.00
2018-07-05T23:20:58.597Z,99794.00
2018-07-05T23:23:43.694Z,99794.00
2018-07-05T23:26:28.792Z,99795.00
2018-07-05T23:29:14.031Z,99801.00
2018-07-05T23:31:59.189Z,99805.00
2018-07-05T23:34:44.412Z,99795.00
2018-07-05T23:37:29.546Z,99798.00
2018-07-05T23:40:14.727Z,99808.00
2018-07-05T23:42:59.844Z,99805.00
2018-07-05T23:45:44.890Z,99805.00
2018-07-05T23:48:30.096Z,99806.00
2018-07-05T23:51:15.126Z,99806.00
2018-07-05T23:54:00.164Z,99808.00
2018-07-05T23:56:45.548Z,99806.00
2018-07-05T23:59:30.688Z,99810.00
